This is the latest recevied weather packets stored in our database for station/object M0SDM. If no packets are shown the sender has not sent any weather packets the latest 10 day(s).
| Time | Temp. | Humidity | Pressure | Rain* | Wind** | Luminosity | Snow |
|---|---|---|---|---|---|---|---|
| 1777771521 | 12.22° C | 99% | 1007.8 hPa | 0.25 mm | - | - | - |
| 1777770621 | 12.78° C | 99% | 1007.7 hPa | 1.27 mm | - | - | - |
| 1777769721 | 12.78° C | 99% | 1007.5 hPa | 1.27 mm | - | - | - |
| 1777769114 | 12.78° C | 99% | 1007.9 hPa | 1.27 mm | - | - | - |
| 1777768821 | 12.78° C | 99% | 1007.9 hPa | 1.27 mm | - | - | - |
| 1777767921 | 12.78° C | 99% | 1008 hPa | 1.02 mm | - | - | - |
| 1777767021 | 12.22° C | 99% | 1008.3 hPa | 0 mm | - | - | - |
| 1777766121 | 12.22° C | 98% | 1008.5 hPa | 0 mm | - | - | - |
| 1777765221 | 12.22° C | 98% | 1008.5 hPa | 0 mm | - | - | - |
| 1777764321 | 12.22° C | 98% | 1008.5 hPa | 0 mm | - | - | - |
| 1777763421 | 12.22° C | 98% | 1008.7 hPa | 0 mm | - | - | - |
| 1777762521 | 12.22° C | 98% | 1008.8 hPa | 0 mm | - | - | - |
| 1777761621 | 12.78° C | 98% | 1009 hPa | 0 mm | - | - | - |
| 1777760721 | 12.78° C | 98% | 1008.9 hPa | 0 mm | - | - | - |
| 1777759821 | 12.78° C | 98% | 1009.2 hPa | 0 mm | - | - | - |
| 1777758921 | 12.78° C | 98% | 1009.4 hPa | 0 mm | - | - | - |
| 1777758021 | 12.78° C | 97% | 1009.6 hPa | 0.25 mm | - | - | - |
| 1777757121 | 12.78° C | 97% | 1009.5 hPa | 1.02 mm | - | - | - |
| 1777756221 | 12.78° C | 97% | 1009.6 hPa | 3.56 mm | - | - | - |
| 1777755321 | 12.78° C | 96% | 1009.9 hPa | 5.08 mm | - | - | - |
| 1777754421 | 12.78° C | 96% | 1009.3 hPa | 7.11 mm | - | - | - |
| 1777753521 | 12.78° C | 95% | 1010.2 hPa | 6.6 mm | - | - | - |
| 1777752621 | 13.33° C | 92% | 1010.9 hPa | 3.81 mm | - | - | - |
| 1777751721 | 13.89° C | 87% | 1010.6 hPa | 2.29 mm | - | - | - |
| 1777750821 | 16.11° C | 78% | 1009.7 hPa | 0 mm | - | - | - |
* Rain latest hour (hover to see other rain measurements)
** Current wind speed in m/s (hover to see current wind gust speed)